Time;durP1;ratioP1;P1;durP2;ratioP2;P2;SDS_P1;SDS_P2;PMS_P1;PMS_P2;Temp;Humidity;BMP_temperature;BMP_pressure;BME280_temperature;BME280_humidity;BME280_pressure;Samples;Min_cycle;Max_cycle;Signal;HPM_P1;HPM_P2
2023/06/08 00:00:20;;;;;;;;;;;13.60;99.90;;;;;;5033705;28;19964;-70
2023/06/08 00:02:46;;;;;;;;;;;13.50;99.90;;;;;;5033559;28;19909;-70
2023/06/08 00:05:13;;;;;;;;;;;13.50;99.90;;;;;;5033658;28;19917;-70
2023/06/08 00:07:40;;;;;;;;;;;13.50;99.90;;;;;;5033652;28;19919;-70
2023/06/08 00:10:07;;;;;;;;;;;13.50;99.90;;;;;;5033756;28;19916;-70
2023/06/08 00:12:34;;;;;;;;;;;13.50;99.90;;;;;;5033928;28;19928;-70
2023/06/08 00:14:59;;;;;;;;;;;13.50;99.90;;;;;;5033934;28;19947;-70
2023/06/08 00:17:25;;;;;;;;;;;13.50;99.90;;;;;;5033960;28;19909;-70
2023/06/08 00:19:52;;;;;;;;;;;13.60;99.90;;;;;;5034176;28;20350;-70
2023/06/08 00:22:18;;;;;;;;;;;13.50;99.90;;;;;;5033866;28;19908;-70
2023/06/08 00:24:43;;;;;;;;;;;13.50;99.90;;;;;;5033705;28;19911;-70
2023/06/08 00:27:10;;;;;;;;;;;13.50;99.90;;;;;;5034037;28;20000;-70
2023/06/08 00:29:35;;;;;;;;;;;13.50;99.90;;;;;;5033815;28;19909;-70
2023/06/08 00:32:01;;;;;;;;;;;13.50;99.90;;;;;;5033832;28;19955;-70
2023/06/08 00:34:27;;;;;;;;;;;13.50;99.90;;;;;;5016630;28;20016;-70
2023/06/08 00:36:53;;;;;;;;;;;13.50;99.90;;;;;;5033734;28;20007;-70
2023/06/08 00:39:18;;;;;;;;;;;13.40;99.90;;;;;;5034302;28;19944;-71
2023/06/08 00:41:44;;;;;;;;;;;13.50;99.90;;;;;;5032903;28;19956;-71
2023/06/08 00:44:10;;;;;;;;;;;13.40;99.90;;;;;;5032500;28;19992;-71
2023/06/08 00:46:36;;;;;;;;;;;13.40;99.90;;;;;;5032699;28;19912;-71
2023/06/08 00:49:02;;;;;;;;;;;13.30;99.90;;;;;;5032681;28;19917;-71
2023/06/08 00:51:33;;;;;;;;;;;13.20;99.90;;;;;;5032674;28;19913;-71
2023/06/08 00:54:00;;;;;;;;;;;13.30;99.90;;;;;;5033241;28;19995;-71
2023/06/08 00:56:26;;;;;;;;;;;13.20;99.90;;;;;;5033375;28;19909;-70
2023/06/08 00:58:55;;;;;;;;;;;13.20;99.90;;;;;;5033395;28;20431;-71
2023/06/08 01:01:24;;;;;;;;;;;13.20;99.90;;;;;;5036657;28;19913;-70
2023/06/08 01:03:51;;;;;;;;;;;13.20;99.90;;;;;;5038029;28;19909;-70
2023/06/08 01:06:16;;;;;;;;;;;13.20;99.90;;;;;;5038036;28;19905;-71
2023/06/08 01:09:05;;;;;;;;;;;13.10;99.90;;;;;;5037243;28;19905;-70
2023/06/08 01:11:31;;;;;;;;;;;13.10;99.90;;;;;;5037068;28;19909;-70
2023/06/08 01:14:13;;;;;;;;;;;13.00;99.90;;;;;;5036516;28;20368;-70
2023/06/08 01:16:40;;;;;;;;;;;12.90;99.90;;;;;;5036482;28;19974;-71
2023/06/08 01:19:10;;;;;;;;;;;12.90;99.90;;;;;;5018772;28;19905;-71
2023/06/08 01:21:39;;;;;;;;;;;12.80;99.90;;;;;;5036354;28;19912;-70
2023/06/08 01:24:12;;;;;;;;;;;12.80;99.90;;;;;;5036619;28;19905;-70
2023/06/08 01:26:42;;;;;;;;;;;12.80;99.90;;;;;;5036511;28;19905;-70
2023/06/08 01:29:09;;;;;;;;;;;12.80;99.90;;;;;;5036304;28;19916;-70
2023/06/08 01:31:36;;;;;;;;;;;12.70;99.90;;;;;;5036357;28;20361;-70
2023/06/08 01:34:01;;;;;;;;;;;12.70;99.90;;;;;;5036235;28;20012;-71
2023/06/08 01:36:33;;;;;;;;;;;12.70;99.90;;;;;;5036544;28;19920;-70
2023/06/08 01:39:17;;;;;;;;;;;12.70;99.90;;;;;;5036501;28;19905;-70
2023/06/08 01:41:43;;;;;;;;;;;12.60;99.90;;;;;;5036313;28;20358;-70
2023/06/08 01:44:12;;;;;;;;;;;12.60;99.90;;;;;;5018277;28;20270;-70
2023/06/08 01:46:37;;;;;;;;;;;12.60;99.90;;;;;;5035931;28;20387;-71
2023/06/08 01:49:04;;;;;;;;;;;12.60;99.90;;;;;;5036110;28;19913;-71
2023/06/08 01:51:31;;;;;;;;;;;12.50;99.90;;;;;;5036011;28;19905;-70
2023/06/08 01:54:00;;;;;;;;;;;12.50;99.90;;;;;;5035752;28;19905;-70
2023/06/08 01:56:30;;;;;;;;;;;12.40;99.90;;;;;;5036176;28;19928;-70
2023/06/08 01:58:56;;;;;;;;;;;12.40;99.90;;;;;;5035791;28;19962;-70
2023/06/08 02:01:21;;;;;;;;;;;12.20;99.90;;;;;;5018016;28;20373;-70
2023/06/08 02:03:47;;;;;;;;;;;12.20;99.90;;;;;;5036071;28;20447;-71
2023/06/08 02:06:12;;;;;;;;;;;12.10;99.90;;;;;;5035687;28;19909;-71
2023/06/08 02:08:38;;;;;;;;;;;12.10;99.90;;;;;;5035578;28;19913;-71
2023/06/08 02:11:04;;;;;;;;;;;12.10;99.90;;;;;;5017784;28;19909;-71
2023/06/08 02:13:34;;;;;;;;;;;12.10;99.90;;;;;;5017892;28;19920;-71
2023/06/08 02:16:00;;;;;;;;;;;12.10;99.90;;;;;;5035531;28;19909;-71
2023/06/08 02:18:26;;;;;;;;;;;12.10;99.90;;;;;;5035583;28;19909;-71
2023/06/08 02:20:52;;;;;;;;;;;12.10;99.90;;;;;;5017710;28;19963;-72
2023/06/08 02:23:18;;;;;;;;;;;12.10;99.90;;;;;;5035322;28;19909;-72
2023/06/08 02:25:43;;;;;;;;;;;12.00;99.90;;;;;;5035249;28;19958;-71
2023/06/08 02:28:09;;;;;;;;;;;12.00;99.90;;;;;;5035617;28;20039;-72
2023/06/08 02:30:34;;;;;;;;;;;12.00;99.90;;;;;;5035190;28;19909;-72
2023/06/08 02:33:00;;;;;;;;;;;12.00;99.90;;;;;;5035127;28;19905;-72
2023/06/08 02:35:25;;;;;;;;;;;12.00;99.90;;;;;;5035009;28;19909;-72
2023/06/08 02:37:51;;;;;;;;;;;11.90;99.90;;;;;;5017234;28;19909;-72
2023/06/08 02:40:17;;;;;;;;;;;11.90;99.90;;;;;;5035168;28;20365;-71
2023/06/08 02:42:43;;;;;;;;;;;11.90;99.90;;;;;;5034880;28;19905;-71
2023/06/08 02:45:08;;;;;;;;;;;11.80;99.90;;;;;;5034820;28;19916;-72
2023/06/08 02:47:34;;;;;;;;;;;11.80;99.90;;;;;;5034795;28;19909;-71
2023/06/08 02:50:00;;;;;;;;;;;11.80;99.90;;;;;;5034726;28;19916;-72
2023/06/08 02:52:25;;;;;;;;;;;11.70;99.90;;;;;;5034762;28;20389;-72
2023/06/08 02:54:51;;;;;;;;;;;11.70;99.90;;;;;;5034737;28;19935;-72
2023/06/08 02:57:16;;;;;;;;;;;11.70;99.90;;;;;;5034620;28;19909;-72
2023/06/08 02:59:42;;;;;;;;;;;11.70;99.90;;;;;;5034447;28;19909;-71
2023/06/08 03:02:07;;;;;;;;;;;11.70;99.90;;;;;;5034618;28;19909;-71
2023/06/08 03:04:33;;;;;;;;;;;11.70;99.90;;;;;;5034441;28;19912;-71
2023/06/08 03:06:59;;;;;;;;;;;11.70;99.90;;;;;;5034448;28;19909;-72
2023/06/08 03:09:28;;;;;;;;;;;11.70;99.90;;;;;;5034438;28;19909;-72
2023/06/08 03:11:54;;;;;;;;;;;11.70;99.90;;;;;;5034388;28;19905;-72
2023/06/08 03:14:20;;;;;;;;;;;11.70;99.90;;;;;;5016532;28;20480;-71
2023/06/08 03:16:46;;;;;;;;;;;11.60;99.90;;;;;;5034308;28;20102;-71
2023/06/08 03:19:14;;;;;;;;;;;11.60;99.90;;;;;;5034330;28;19916;-72
2023/06/08 03:21:41;;;;;;;;;;;11.60;99.90;;;;;;5034482;28;20273;-71
2023/06/08 03:24:07;;;;;;;;;;;11.60;99.90;;;;;;5033704;28;19960;-72
2023/06/08 03:26:33;;;;;;;;;;;11.60;99.90;;;;;;5034114;28;20310;-72
2023/06/08 03:28:58;;;;;;;;;;;11.50;99.90;;;;;;5034206;28;19911;-72
2023/06/08 03:31:24;;;;;;;;;;;11.50;99.90;;;;;;5034793;28;20277;-72
2023/06/08 03:33:49;;;;;;;;;;;11.50;99.90;;;;;;5016761;28;19913;-72
2023/06/08 03:36:15;;;;;;;;;;;11.50;99.90;;;;;;5034486;28;20282;-72
2023/06/08 03:38:41;;;;;;;;;;;11.40;99.90;;;;;;5034537;28;19964;-72
2023/06/08 03:41:08;;;;;;;;;;;11.40;99.90;;;;;;5016312;28;19913;-72
2023/06/08 03:43:37;;;;;;;;;;;11.40;99.90;;;;;;5034203;28;19909;-72
2023/06/08 03:46:02;;;;;;;;;;;11.40;99.90;;;;;;5034106;28;19999;-72
2023/06/08 03:48:28;;;;;;;;;;;11.40;99.90;;;;;;5034296;28;19967;-72
2023/06/08 03:50:53;;;;;;;;;;;11.40;99.90;;;;;;5034133;28;19923;-72
2023/06/08 03:53:19;;;;;;;;;;;11.40;99.90;;;;;;5034199;28;20269;-72
2023/06/08 03:55:45;;;;;;;;;;;11.40;99.90;;;;;;5034678;28;19946;-72
2023/06/08 03:58:12;;;;;;;;;;;11.40;99.90;;;;;;5034412;28;19916;-72
2023/06/08 04:00:38;;;;;;;;;;;11.30;99.90;;;;;;5034544;28;20324;-72
2023/06/08 04:03:04;;;;;;;;;;;11.30;99.90;;;;;;5017265;28;19909;-72
2023/06/08 04:05:29;;;;;;;;;;;11.30;99.90;;;;;;5034703;28;19983;-72
2023/06/08 04:07:55;;;;;;;;;;;11.30;99.90;;;;;;5016724;28;19919;-72
2023/06/08 04:10:20;;;;;;;;;;;11.30;99.90;;;;;;5034137;28;19915;-72
2023/06/08 04:12:46;;;;;;;;;;;11.30;99.90;;;;;;5034950;28;19911;-72
2023/06/08 04:15:12;;;;;;;;;;;11.30;99.90;;;;;;5034836;28;19936;-72
2023/06/08 04:17:41;;;;;;;;;;;11.30;99.90;;;;;;5034498;28;19913;-72
2023/06/08 04:20:09;;;;;;;;;;;11.30;99.90;;;;;;5034363;28;19966;-72
2023/06/08 04:22:35;;;;;;;;;;;11.30;99.90;;;;;;5034734;28;19905;-72
2023/06/08 04:25:01;;;;;;;;;;;11.40;99.90;;;;;;5034695;28;20000;-72
2023/06/08 04:27:26;;;;;;;;;;;11.30;99.90;;;;;;5034894;28;19912;-72
2023/06/08 04:29:52;;;;;;;;;;;11.30;99.90;;;;;;5037208;28;19909;-72
2023/06/08 04:32:18;;;;;;;;;;;11.40;99.90;;;;;;5035385;28;19916;-72
2023/06/08 04:34:43;;;;;;;;;;;11.40;99.90;;;;;;5017119;28;19974;-72
2023/06/08 04:37:09;;;;;;;;;;;11.40;99.90;;;;;;5038149;28;19909;-71
2023/06/08 04:39:35;;;;;;;;;;;11.50;99.90;;;;;;5038482;28;19909;-72
2023/06/08 04:42:02;;;;;;;;;;;11.50;99.90;;;;;;5038421;28;20293;-72
2023/06/08 04:44:31;;;;;;;;;;;11.50;99.90;;;;;;5036590;28;19909;-71
2023/06/08 04:46:57;;;;;;;;;;;11.50;99.90;;;;;;5037624;28;19916;-71
2023/06/08 04:49:31;;;;;;;;;;;11.50;99.90;;;;;;5038442;28;19912;-72
2023/06/08 04:52:00;;;;;;;;;;;11.60;99.90;;;;;;5021701;28;19916;-72
2023/06/08 04:54:26;;;;;;;;;;;11.60;99.90;;;;;;5038382;28;19909;-72
2023/06/08 04:56:58;;;;;;;;;;;11.70;99.90;;;;;;5039027;28;19912;-71
2023/06/08 04:59:25;;;;;;;;;;;11.70;99.90;;;;;;5038736;28;19911;-72
2023/06/08 05:01:51;;;;;;;;;;;11.70;99.90;;;;;;5036892;28;20019;-71
2023/06/08 05:04:16;;;;;;;;;;;11.70;99.90;;;;;;5036716;28;19905;-72
2023/06/08 05:06:42;;;;;;;;;;;11.80;99.90;;;;;;5037406;28;20004;-72
2023/06/08 05:09:07;;;;;;;;;;;11.80;99.90;;;;;;5037231;28;19909;-72
2023/06/08 05:11:33;;;;;;;;;;;11.80;99.90;;;;;;5037137;28;19916;-72
2023/06/08 05:13:58;;;;;;;;;;;11.80;99.90;;;;;;5019304;28;19909;-72
2023/06/08 05:16:24;;;;;;;;;;;11.80;99.90;;;;;;5019175;28;19909;-72
2023/06/08 05:18:50;;;;;;;;;;;11.80;99.90;;;;;;5036010;28;19996;-72
2023/06/08 05:21:15;;;;;;;;;;;11.90;99.90;;;;;;5036954;28;19960;-72
2023/06/08 05:23:41;;;;;;;;;;;11.90;99.90;;;;;;5035787;28;19909;-71
2023/06/08 05:26:06;;;;;;;;;;;12.00;99.90;;;;;;5036872;28;19909;-72
2023/06/08 05:28:32;;;;;;;;;;;12.00;99.90;;;;;;5037215;28;20409;-72
2023/06/08 05:30:57;;;;;;;;;;;12.10;99.90;;;;;;5036370;28;19955;-71
2023/06/08 05:33:23;;;;;;;;;;;12.10;99.90;;;;;;5036894;28;19974;-72
2023/06/08 05:35:48;;;;;;;;;;;12.20;99.90;;;;;;5036940;28;20427;-72
2023/06/08 05:38:14;;;;;;;;;;;12.30;99.90;;;;;;5036005;28;20408;-71
2023/06/08 05:40:40;;;;;;;;;;;12.30;99.90;;;;;;5030450;28;19913;-72
2023/06/08 05:43:05;;;;;;;;;;;12.40;99.90;;;;;;5036389;28;19916;-72
2023/06/08 05:45:31;;;;;;;;;;;12.40;99.90;;;;;;5018418;28;19909;-72
2023/06/08 05:47:56;;;;;;;;;;;12.50;99.90;;;;;;5036116;28;20293;-72
2023/06/08 05:50:22;;;;;;;;;;;12.70;99.90;;;;;;5035655;28;19943;-72
2023/06/08 05:52:47;;;;;;;;;;;12.70;99.90;;;;;;5036678;28;20417;-72
2023/06/08 05:55:13;;;;;;;;;;;12.90;99.90;;;;;;5018123;28;19916;-72
2023/06/08 05:57:39;;;;;;;;;;;13.00;99.90;;;;;;5036495;28;19909;-72
2023/06/08 06:00:10;;;;;;;;;;;13.10;99.90;;;;;;5036779;28;19952;-73
2023/06/08 06:02:36;;;;;;;;;;;13.30;99.90;;;;;;5036505;28;20307;-73
2023/06/08 06:05:01;;;;;;;;;;;13.40;99.90;;;;;;5037547;28;19940;-72
2023/06/08 06:07:27;;;;;;;;;;;13.50;99.90;;;;;;5019402;28;19951;-73
2023/06/08 06:09:52;;;;;;;;;;;13.60;99.90;;;;;;5037314;28;19996;-73
2023/06/08 06:12:18;;;;;;;;;;;13.70;99.90;;;;;;5020200;28;19941;-72
2023/06/08 06:14:43;;;;;;;;;;;13.80;99.90;;;;;;5038514;28;19963;-72
2023/06/08 06:17:09;;;;;;;;;;;14.00;99.90;;;;;;5039950;28;20281;-73
2023/06/08 06:19:38;;;;;;;;;;;14.00;99.90;;;;;;5038987;28;19909;-73
2023/06/08 06:22:04;;;;;;;;;;;14.10;99.90;;;;;;5039497;28;19913;-72
2023/06/08 06:24:30;;;;;;;;;;;14.20;99.90;;;;;;5021083;28;19908;-72
2023/06/08 06:26:56;;;;;;;;;;;14.30;99.90;;;;;;5038466;28;20322;-73
2023/06/08 06:29:21;;;;;;;;;;;14.30;99.90;;;;;;5038559;28;20030;-73
2023/06/08 06:31:47;;;;;;;;;;;14.50;99.90;;;;;;5038106;28;19909;-72
2023/06/08 06:34:12;;;;;;;;;;;14.60;99.90;;;;;;5020221;28;19939;-73
2023/06/08 06:36:38;;;;;;;;;;;14.70;99.90;;;;;;5038530;28;19913;-73
2023/06/08 06:39:03;;;;;;;;;;;14.80;99.90;;;;;;5039058;28;19909;-73
2023/06/08 06:41:29;;;;;;;;;;;14.90;99.90;;;;;;5039281;28;19913;-72
2023/06/08 06:43:54;;;;;;;;;;;15.00;99.90;;;;;;5037943;28;20011;-72
2023/06/08 06:46:21;;;;;;;;;;;15.00;99.90;;;;;;5039741;28;19909;-73
2023/06/08 06:48:47;;;;;;;;;;;15.10;99.90;;;;;;5039498;28;19916;-72
2023/06/08 06:51:12;;;;;;;;;;;15.20;99.90;;;;;;5038243;28;19952;-72
2023/06/08 06:53:38;;;;;;;;;;;15.30;99.90;;;;;;5037659;28;19955;-71
2023/06/08 06:56:03;;;;;;;;;;;15.40;99.90;;;;;;5037480;28;20392;-72
2023/06/08 06:58:31;;;;;;;;;;;15.40;99.90;;;;;;5036439;28;19913;-72
2023/06/08 07:00:57;;;;;;;;;;;15.50;99.90;;;;;;5018630;28;19917;-72
2023/06/08 07:03:26;;;;;;;;;;;15.60;99.90;;;;;;5014894;28;19920;-70
2023/06/08 07:05:58;;;;;;;;;;;15.60;99.90;;;;;;5015862;28;19917;-71
2023/06/08 07:08:25;;;;;;;;;;;15.80;99.90;;;;;;5035487;28;19935;-72
2023/06/08 07:10:51;;;;;;;;;;;15.80;99.90;;;;;;5035959;28;19931;-72
2023/06/08 07:13:16;;;;;;;;;;;15.90;99.90;;;;;;5034701;28;19913;-72
2023/06/08 07:15:42;;;;;;;;;;;16.00;99.90;;;;;;5018370;28;19909;-72
2023/06/08 07:18:08;;;;;;;;;;;16.20;99.90;;;;;;5022505;28;20342;-72
2023/06/08 07:20:33;;;;;;;;;;;16.30;99.90;;;;;;5035463;28;20093;-71
2023/06/08 07:22:59;;;;;;;;;;;16.40;99.90;;;;;;5019767;28;19920;-71
2023/06/08 07:25:24;;;;;;;;;;;16.50;99.90;;;;;;5034499;28;19913;-72
2023/06/08 07:27:50;;;;;;;;;;;16.50;99.90;;;;;;5036327;28;19909;-72
2023/06/08 07:30:16;;;;;;;;;;;16.70;99.90;;;;;;5036285;28;19916;-72
2023/06/08 07:32:43;;;;;;;;;;;16.80;99.90;;;;;;5034292;28;20007;-71
2023/06/08 07:35:09;;;;;;;;;;;16.90;99.90;;;;;;5034082;28;19913;-71
2023/06/08 07:37:34;;;;;;;;;;;17.00;99.90;;;;;;5034778;28;19963;-71
2023/06/08 07:40:00;;;;;;;;;;;17.20;99.90;;;;;;5034443;28;20281;-71
2023/06/08 07:42:25;;;;;;;;;;;17.30;99.90;;;;;;5035340;28;19909;-72
2023/06/08 07:44:51;;;;;;;;;;;17.40;99.90;;;;;;5034680;28;19905;-72
2023/06/08 07:47:17;;;;;;;;;;;17.60;99.90;;;;;;5034673;28;19912;-73
2023/06/08 07:49:43;;;;;;;;;;;17.80;99.90;;;;;;5033992;28;19917;-73
2023/06/08 07:52:08;;;;;;;;;;;18.00;99.90;;;;;;5034741;28;20353;-72
2023/06/08 07:54:35;;;;;;;;;;;18.20;99.90;;;;;;5035134;28;19905;-72
2023/06/08 07:57:00;;;;;;;;;;;18.30;99.90;;;;;;5034939;28;19916;-71
2023/06/08 07:59:26;;;;;;;;;;;18.40;99.90;;;;;;5033686;28;19921;-70
2023/06/08 08:01:52;;;;;;;;;;;18.50;99.90;;;;;;5016097;28;19988;-71
2023/06/08 08:04:18;;;;;;;;;;;18.70;99.90;;;;;;5033618;28;19941;-71
2023/06/08 08:06:43;;;;;;;;;;;18.80;99.90;;;;;;5015538;28;19909;-71
2023/06/08 08:09:09;;;;;;;;;;;18.90;99.90;;;;;;5034769;28;19913;-70
2023/06/08 08:11:36;;;;;;;;;;;19.10;99.90;;;;;;5039242;28;19947;-72
2023/06/08 08:14:02;;;;;;;;;;;19.20;99.90;;;;;;5038752;28;19909;-71
2023/06/08 08:16:27;;;;;;;;;;;19.40;99.90;;;;;;5037654;28;19916;-71
2023/06/08 08:18:53;;;;;;;;;;;19.50;99.90;;;;;;5019476;28;20276;-71
2023/06/08 08:21:18;;;;;;;;;;;19.60;99.90;;;;;;5037198;28;20357;-71
2023/06/08 08:23:45;;;;;;;;;;;19.70;99.90;;;;;;5037299;28;19917;-71
2023/06/08 08:26:11;;;;;;;;;;;19.70;99.90;;;;;;5037388;28;20010;-71
2023/06/08 08:28:41;;;;;;;;;;;19.80;99.90;;;;;;5036970;28;20353;-71
2023/06/08 08:31:06;;;;;;;;;;;19.90;99.90;;;;;;5019583;28;19909;-71
2023/06/08 08:33:32;;;;;;;;;;;20.00;99.90;;;;;;5037347;28;19980;-71
2023/06/08 08:35:57;;;;;;;;;;;20.10;99.90;;;;;;5019711;28;19909;-71
2023/06/08 08:38:23;;;;;;;;;;;20.10;99.90;;;;;;5037222;28;19909;-70
2023/06/08 08:40:51;;;;;;;;;;;20.20;99.90;;;;;;5036906;28;19956;-71
2023/06/08 08:43:29;;;;;;;;;;;20.30;99.90;;;;;;5019186;28;19948;-71
2023/06/08 08:45:57;;;;;;;;;;;20.30;99.90;;;;;;5036784;28;19901;-71
2023/06/08 08:48:25;;;;;;;;;;;20.40;99.90;;;;;;5036667;28;19905;-71
2023/06/08 08:50:57;;;;;;;;;;;20.50;98.60;;;;;;5036616;28;19967;-71
2023/06/08 08:53:27;;;;;;;;;;;20.70;98.00;;;;;;5036743;28;19905;-71
2023/06/08 08:55:57;;;;;;;;;;;20.80;98.30;;;;;;5019764;28;19909;-70
2023/06/08 08:58:22;;;;;;;;;;;21.00;98.80;;;;;;5036690;28;19919;-71
2023/06/08 09:00:48;;;;;;;;;;;21.10;96.30;;;;;;5018870;28;19992;-71
2023/06/08 09:03:15;;;;;;;;;;;21.20;96.40;;;;;;5036080;28;19995;-71
2023/06/08 09:05:41;;;;;;;;;;;21.30;96.10;;;;;;5018378;28;19905;-70
2023/06/08 09:08:06;;;;;;;;;;;21.30;95.50;;;;;;5036583;28;19909;-71
2023/06/08 09:10:32;;;;;;;;;;;21.40;95.90;;;;;;5036249;28;19909;-71
2023/06/08 09:12:58;;;;;;;;;;;21.50;94.00;;;;;;5036243;28;19916;-70
2023/06/08 09:15:26;;;;;;;;;;;21.60;93.60;;;;;;5018049;28;20399;-70
2023/06/08 09:17:53;;;;;;;;;;;21.70;93.90;;;;;;5036446;28;20353;-71
2023/06/08 09:20:26;;;;;;;;;;;21.90;92.80;;;;;;5035949;28;19913;-70
2023/06/08 09:22:52;;;;;;;;;;;22.00;93.60;;;;;;5036241;28;19988;-70
2023/06/08 09:25:20;;;;;;;;;;;22.20;93.30;;;;;;5035710;28;19952;-71
2023/06/08 09:27:47;;;;;;;;;;;22.40;92.10;;;;;;5034388;28;19912;-71
2023/06/08 09:30:23;;;;;;;;;;;22.50;91.20;;;;;;5034367;28;19909;-71
2023/06/08 09:32:49;;;;;;;;;;;22.60;91.70;;;;;;5034238;28;20308;-72
2023/06/08 09:35:21;;;;;;;;;;;22.80;91.30;;;;;;5034224;28;19963;-71
2023/06/08 09:37:49;;;;;;;;;;;22.90;90.00;;;;;;5034370;28;20392;-71
2023/06/08 09:40:19;;;;;;;;;;;23.00;90.20;;;;;;5035167;28;20375;-71
2023/06/08 09:42:50;;;;;;;;;;;23.20;89.70;;;;;;5034688;28;19909;-72
2023/06/08 09:45:16;;;;;;;;;;;23.30;90.50;;;;;;5031614;28;20273;-72
2023/06/08 09:47:42;;;;;;;;;;;23.50;90.00;;;;;;5035957;28;19963;-72
2023/06/08 09:50:08;;;;;;;;;;;23.60;88.10;;;;;;5035439;28;19913;-72
2023/06/08 09:52:35;;;;;;;;;;;23.80;84.80;;;;;;5034390;28;19913;-72
2023/06/08 09:55:01;;;;;;;;;;;23.90;77.30;;;;;;5035294;28;19909;-72
2023/06/08 09:57:27;;;;;;;;;;;23.90;75.40;;;;;;5026103;28;19912;-72
2023/06/08 09:59:54;;;;;;;;;;;23.90;72.20;;;;;;5015919;28;19906;-72
2023/06/08 10:02:28;;;;;;;;;;;23.90;73.10;;;;;;5031669;28;20323;-72
2023/06/08 10:04:54;;;;;;;;;;;24.00;70.80;;;;;;5034599;28;19916;-72
2023/06/08 10:07:25;;;;;;;;;;;24.10;71.20;;;;;;5029669;28;20297;-72
2023/06/08 10:09:55;;;;;;;;;;;24.10;64.10;;;;;;5026554;28;19916;-72
2023/06/08 10:12:20;;;;;;;;;;;24.20;66.30;;;;;;5033744;28;20332;-72
2023/06/08 10:14:49;;;;;;;;;;;24.30;67.80;;;;;;5012225;28;20008;-72
2023/06/08 10:17:15;;;;;;;;;;;24.40;66.80;;;;;;5017317;28;19916;-72
2023/06/08 10:19:41;;;;;;;;;;;24.40;66.80;;;;;;5027514;28;20007;-71
2023/06/08 10:22:06;;;;;;;;;;;24.50;66.70;;;;;;5034335;28;20333;-71
2023/06/08 10:24:32;;;;;;;;;;;24.70;64.70;;;;;;5033909;28;19948;-71
2023/06/08 10:27:09;;;;;;;;;;;24.70;66.90;;;;;;5034464;28;20360;-71
2023/06/08 10:29:35;;;;;;;;;;;24.80;68.80;;;;;;5034201;28;19905;-71
2023/06/08 10:32:04;;;;;;;;;;;24.90;66.30;;;;;;5033294;28;19916;-71
2023/06/08 10:34:37;;;;;;;;;;;25.10;67.30;;;;;;5033251;28;19992;-71
2023/06/08 10:37:03;;;;;;;;;;;25.20;66.20;;;;;;5033704;28;19912;-71
2023/06/08 10:39:45;;;;;;;;;;;25.30;67.20;;;;;;5033852;28;19913;-71
2023/06/08 10:42:16;;;;;;;;;;;25.20;68.30;;;;;;4997682;28;19910;-71
2023/06/08 10:44:42;;;;;;;;;;;25.30;68.50;;;;;;5017403;28;19913;-71
2023/06/08 10:47:08;;;;;;;;;;;25.40;69.20;;;;;;5026422;28;20005;-71
2023/06/08 10:49:37;;;;;;;;;;;25.40;68.60;;;;;;5016202;28;19917;-71
2023/06/08 10:52:04;;;;;;;;;;;25.40;68.00;;;;;;5021074;28;19912;-71
2023/06/08 10:54:30;;;;;;;;;;;25.40;68.50;;;;;;4997031;28;19909;-71
2023/06/08 10:56:57;;;;;;;;;;;25.40;66.50;;;;;;5014718;28;20251;-71
2023/06/08 10:59:35;;;;;;;;;;;25.50;70.20;;;;;;5014765;28;20321;-71
2023/06/08 11:02:02;;;;;;;;;;;25.50;66.40;;;;;;5023073;28;19924;-72
2023/06/08 11:04:29;;;;;;;;;;;25.50;64.00;;;;;;5014157;28;19912;-72
2023/06/08 11:06:57;;;;;;;;;;;25.60;65.60;;;;;;5014259;28;19913;-72
2023/06/08 11:09:27;;;;;;;;;;;25.60;65.80;;;;;;5014403;28;19909;-71
2023/06/08 11:11:52;;;;;;;;;;;25.80;66.70;;;;;;5014050;28;20254;-71
2023/06/08 11:14:18;;;;;;;;;;;26.00;63.70;;;;;;5015725;28;19905;-71
2023/06/08 11:16:50;;;;;;;;;;;26.20;64.80;;;;;;5042550;28;19904;-71
2023/06/08 11:19:17;;;;;;;;;;;26.30;62.30;;;;;;5014608;28;19909;-72
2023/06/08 11:21:43;;;;;;;;;;;26.20;60.50;;;;;;5032575;28;19913;-71
2023/06/08 11:24:09;;;;;;;;;;;26.30;60.60;;;;;;5014520;28;20077;-71
2023/06/08 11:26:36;;;;;;;;;;;26.40;59.00;;;;;;5013829;28;20358;-71
2023/06/08 11:29:01;;;;;;;;;;;26.50;56.20;;;;;;5032495;28;19975;-72
2023/06/08 11:31:51;;;;;;;;;;;26.50;57.80;;;;;;5032397;28;20377;-71
2023/06/08 11:34:18;;;;;;;;;;;26.60;54.20;;;;;;5014613;28;19909;-71
2023/06/08 11:36:43;;;;;;;;;;;26.60;56.80;;;;;;5032371;28;19913;-71
2023/06/08 11:39:12;;;;;;;;;;;26.70;55.00;;;;;;5032101;28;19917;-71
2023/06/08 11:41:40;;;;;;;;;;;26.60;54.20;;;;;;5032067;28;19909;-71
2023/06/08 11:44:06;;;;;;;;;;;26.50;54.10;;;;;;5031641;28;19909;-70
2023/06/08 11:46:32;;;;;;;;;;;26.30;52.30;;;;;;5032254;28;20423;-70
2023/06/08 11:49:10;;;;;;;;;;;26.00;53.50;;;;;;5035445;28;19928;-70
2023/06/08 11:51:46;;;;;;;;;;;25.70;59.20;;;;;;5031829;28;19923;-70
2023/06/08 11:54:12;;;;;;;;;;;25.30;62.80;;;;;;5013693;28;20346;-70
2023/06/08 11:56:38;;;;;;;;;;;24.90;57.40;;;;;;5022590;28;19914;-70
2023/06/08 11:59:04;;;;;;;;;;;24.60;58.50;;;;;;5022424;28;19910;-70
2023/06/08 12:01:29;;;;;;;;;;;24.30;57.60;;;;;;4996214;28;19917;-70
2023/06/08 12:03:56;;;;;;;;;;;24.00;58.20;;;;;;5030511;28;19908;-70
2023/06/08 12:06:26;;;;;;;;;;;23.80;59.60;;;;;;5032278;28;19996;-70
2023/06/08 12:08:52;;;;;;;;;;;23.60;59.10;;;;;;5032275;28;19912;-70
2023/06/08 12:11:19;;;;;;;;;;;23.30;61.00;;;;;;5034289;28;20509;-70
2023/06/08 12:13:44;;;;;;;;;;;23.10;61.40;;;;;;5004177;28;19909;-70
2023/06/08 12:16:10;;;;;;;;;;;23.00;64.80;;;;;;5013375;28;19925;-70
2023/06/08 12:18:39;;;;;;;;;;;22.90;67.70;;;;;;5015644;28;20362;-70
2023/06/08 12:21:06;;;;;;;;;;;22.70;69.80;;;;;;5013629;28;19916;-70
2023/06/08 12:23:31;;;;;;;;;;;22.60;71.70;;;;;;5013473;28;19941;-70
2023/06/08 12:25:57;;;;;;;;;;;22.60;72.80;;;;;;5013616;28;19945;-70
2023/06/08 12:28:23;;;;;;;;;;;22.60;75.00;;;;;;5013828;28;19976;-70
2023/06/08 12:30:49;;;;;;;;;;;22.50;75.80;;;;;;5019311;28;19909;-70
2023/06/08 12:33:17;;;;;;;;;;;22.60;75.50;;;;;;5013765;28;20420;-70
2023/06/08 12:35:43;;;;;;;;;;;22.60;77.00;;;;;;5019149;28;19913;-70
2023/06/08 12:38:09;;;;;;;;;;;22.70;77.70;;;;;;5022286;28;19920;-70
2023/06/08 12:40:34;;;;;;;;;;;22.70;78.20;;;;;;5023404;28;19913;-70
2023/06/08 12:43:00;;;;;;;;;;;22.80;76.50;;;;;;5026338;28;19959;-70
2023/06/08 12:45:27;;;;;;;;;;;22.90;76.40;;;;;;5032715;28;19905;-70
2023/06/08 12:47:53;;;;;;;;;;;22.90;75.60;;;;;;5031203;28;19971;-70
2023/06/08 12:50:25;;;;;;;;;;;22.90;71.50;;;;;;4999089;28;19964;-70
2023/06/08 12:52:51;;;;;;;;;;;22.80;72.20;;;;;;5032881;28;19909;-70
2023/06/08 12:55:17;;;;;;;;;;;22.70;75.10;;;;;;5031592;28;19992;-70
2023/06/08 12:57:43;;;;;;;;;;;22.90;72.60;;;;;;5036095;28;19909;-70
2023/06/08 13:00:10;;;;;;;;;;;23.00;72.20;;;;;;5035522;28;19921;-70
2023/06/08 13:02:35;;;;;;;;;;;23.10;71.40;;;;;;5036773;28;19956;-70
2023/06/08 13:05:01;;;;;;;;;;;23.20;67.70;;;;;;5036666;28;19987;-70
2023/06/08 13:07:26;;;;;;;;;;;23.20;68.10;;;;;;5036548;28;20032;-70
2023/06/08 13:09:53;;;;;;;;;;;23.30;68.00;;;;;;5019046;28;19909;-70
2023/06/08 13:12:18;;;;;;;;;;;23.40;68.60;;;;;;5036698;28;19959;-70
2023/06/08 13:14:44;;;;;;;;;;;23.50;66.10;;;;;;5036003;28;19909;-70
2023/06/08 13:17:10;;;;;;;;;;;23.50;69.20;;;;;;5036512;28;19909;-70
2023/06/08 13:19:35;;;;;;;;;;;23.80;70.90;;;;;;5018737;28;20289;-70
2023/06/08 13:22:01;;;;;;;;;;;24.10;68.50;;;;;;5036085;28;19952;-70
2023/06/08 13:24:26;;;;;;;;;;;24.20;66.00;;;;;;5036203;28;19916;-70
2023/06/08 13:26:54;;;;;;;;;;;24.30;70.40;;;;;;5036170;28;19916;-70
2023/06/08 13:29:21;;;;;;;;;;;24.40;69.20;;;;;;5018676;28;20281;-70
2023/06/08 13:31:46;;;;;;;;;;;24.70;68.50;;;;;;5036093;28;19983;-69
2023/06/08 13:34:12;;;;;;;;;;;24.90;65.10;;;;;;5036018;28;19945;-69
2023/06/08 13:36:39;;;;;;;;;;;24.90;64.30;;;;;;5035892;28;20254;-69
2023/06/08 13:39:04;;;;;;;;;;;24.90;63.10;;;;;;5035898;28;19905;-70
2023/06/08 13:41:35;;;;;;;;;;;24.90;65.80;;;;;;5035688;28;19916;-70
2023/06/08 13:44:04;;;;;;;;;;;24.80;64.00;;;;;;5036011;28;19915;-70
2023/06/08 13:46:30;;;;;;;;;;;24.80;64.10;;;;;;5018069;28;19916;-70
2023/06/08 13:48:55;;;;;;;;;;;24.50;61.70;;;;;;5035828;28;19913;-69
2023/06/08 13:51:21;;;;;;;;;;;24.20;61.40;;;;;;5035788;28;19955;-70
2023/06/08 13:53:49;;;;;;;;;;;23.80;61.10;;;;;;5035598;28;19909;-69
2023/06/08 13:56:15;;;;;;;;;;;23.30;62.20;;;;;;5035611;28;19908;-69
2023/06/08 13:58:40;;;;;;;;;;;23.00;62.80;;;;;;5026799;28;20231;-70
2023/06/08 14:01:06;;;;;;;;;;;22.70;62.60;;;;;;5006717;28;19928;-69
2023/06/08 14:03:31;;;;;;;;;;;22.50;65.50;;;;;;5020730;28;19959;-69
2023/06/08 14:05:57;;;;;;;;;;;22.40;64.20;;;;;;5015747;28;19960;-69
2023/06/08 14:08:22;;;;;;;;;;;22.20;65.40;;;;;;5015394;28;19910;-70
2023/06/08 14:10:49;;;;;;;;;;;22.00;65.20;;;;;;5015185;28;19996;-70
2023/06/08 14:13:15;;;;;;;;;;;21.90;65.40;;;;;;5014762;28;20423;-70